Flight Track Log - Related Links

Times and Time Zones

All times are in EST time to prevent confusion due to time zone crossing. See the EJM826 flight status page for this flight to view local times or setup timezone preferences in your user account.

Time Position Orientation Groundspeed Altitude Reporting Facility
EST Latitude Longitude Course Direction KTS MPH feet Rate Location/Type
Mon 06:27:12 PM 29.9650 -95.3575 234° Southwest 167 192 1,200  Level Houston Center
Mon 06:28:20 PM 29.9247 -95.4203 233° Southwest 269 310 3,000 885 Climbing Houston Center
Mon 06:29:14 PM 29.8856 -95.4611 222° Southwest 276 318 3,000  Level Houston Center
Mon 06:29:21 PM 29.8647 -95.4781 215° Southwest 281 323 3,000  Level Houston Center
Mon 06:30:16 PM 29.8067 -95.5111 206° Southwest 274 315 3,000  Level Houston Center
Mon 06:30:23 PM 29.7967 -95.5128 188° South 254 292 3,000  Level Houston Center
Mon 06:31:18 PM 29.7447 -95.5244 191° South 244 281 3,000  Level Houston Center
Mon 06:31:24 PM 29.7369 -95.5269 196° South 218 251 3,000  Level Houston Center
Mon 06:32:31 PM 29.6681 -95.5306 183° South 230 265 3,000  Level Houston Center
Mon 06:33:22 PM 29.6250 -95.5136 161° South 227 261 3,000  Level Houston Center
Mon 06:33:26 PM 29.6111 -95.5058 154° Southeast 237 273 3,000  Level Houston Center
Mon 06:34:24 PM 29.5722 -95.4744 145° Southeast 230 265 3,000 -90 Level Houston Center
Mon 06:34:33 PM 29.5564 -95.4572 137° Southeast 217 250 2,900 -774 Descending Houston Center
Mon 06:35:26 PM 29.5506 -95.4019 97° East 215 247 2,200 -706 Descending Houston Center
Mon 06:35:41 PM 29.5542 -95.3878 74° East 205 236 2,100 -484 Descending Houston Center
Mon 06:36:28 PM 29.5764 -95.3528 54° Northeast 193 222 1,700 -536 Descending Houston Center
Mon 06:36:37 PM 29.5800 -95.3486 45° Northeast 159 183 1,600 -686 Descending Houston Center
Mon 06:37:38 PM 29.5983 -95.2983 67° East 149 171 900 -626 Descending Houston Center
Mon 06:38:32 PM 29.6211 -95.2842 28° Northeast 146 168 400 -689 Descending Houston Center
Mon 06:38:39 PM 29.6286 -95.2850 354° North 110 127 200 2,516 Descending Houston Center
Mon 06:39:34 PM 29.6558 -95.2842 North 129 148 3,000 3,055 Climbing Houston Center

Login

Don't have an account? Register now (free) for customized features, flight alerts, and more!